Time;durP1;ratioP1;P1;durP2;ratioP2;P2;SDS_P1;SDS_P2;PMS_P1;PMS_P2;Temp;Humidity;BMP_temperature;BMP_pressure;BME280_temperature;BME280_humidity;BME280_pressure;Samples;Min_cycle;Max_cycle;Signal;HPM_P1;HPM_P2
2022/10/09 00:00:09;;;;;;;5.80;1.73;;;8.30;99.90;;;7.53;100.00;101756.75;5073663;23;20002;-76
2022/10/09 00:02:10;;;;;;;6.43;1.75;;;8.30;99.90;;;7.51;100.00;101749.00;5099358;23;20085;-76
2022/10/09 00:04:11;;;;;;;5.10;1.45;;;8.30;99.90;;;7.55;100.00;101749.63;5073456;23;20454;-76
2022/10/09 00:06:16;;;;;;;5.72;1.77;;;8.30;99.90;;;7.50;100.00;101739.44;5073929;23;20114;-76
2022/10/09 00:08:17;;;;;;;3.10;1.30;;;8.30;99.90;;;7.51;100.00;101746.38;5073687;23;20060;-76
2022/10/09 00:10:18;;;;;;;3.85;1.45;;;8.30;99.90;;;7.47;100.00;101734.41;5073535;23;20014;-76
2022/10/09 00:12:19;;;;;;;5.78;1.60;;;8.20;99.90;;;7.45;100.00;101732.88;5073162;23;20048;-76
2022/10/09 00:14:20;;;;;;;3.42;1.55;;;8.20;99.90;;;7.46;100.00;101738.03;5073086;23;20085;-76
2022/10/09 00:16:22;;;;;;;6.47;1.67;;;8.20;99.90;;;7.46;100.00;101737.19;5073608;23;20005;-76
2022/10/09 00:18:23;;;;;;;5.63;1.92;;;8.20;99.90;;;7.44;100.00;101726.78;5073432;23;20012;-76
2022/10/09 00:20:24;;;;;;;6.43;1.73;;;8.20;99.90;;;7.43;100.00;101738.25;5099273;23;20037;-76
2022/10/09 00:22:25;;;;;;;5.05;1.92;;;8.20;99.90;;;7.42;100.00;101733.94;5073006;23;20002;-76
2022/10/09 00:24:26;;;;;;;5.47;1.65;;;8.20;99.90;;;7.39;100.00;101730.69;5073533;23;20440;-76
2022/10/09 00:26:28;;;;;;;6.28;2.15;;;8.10;99.90;;;7.37;100.00;101729.97;5097422;23;20422;-76
2022/10/09 00:28:30;;;;;;;8.30;2.15;;;8.10;99.90;;;7.37;100.00;101736.06;5099299;23;20013;-76
2022/10/09 00:30:31;;;;;;;7.57;2.08;;;8.10;99.90;;;7.35;100.00;101729.25;5099154;23;20006;-76
2022/10/09 00:32:32;;;;;;;5.13;2.08;;;8.10;99.90;;;7.33;100.00;101731.13;5073182;23;20006;-76
2022/10/09 00:34:33;;;;;;;9.95;2.88;;;8.10;99.90;;;7.34;100.00;101727.56;5097590;23;20009;-76
2022/10/09 00:36:34;;;;;;;8.85;2.38;;;8.10;99.90;;;7.30;100.00;101729.56;5072905;23;20020;-76
2022/10/09 00:38:35;;;;;;;9.45;2.47;;;8.10;99.90;;;7.28;100.00;101717.50;5099027;23;20010;-76
2022/10/09 00:40:37;;;;;;;6.47;2.58;;;8.10;99.90;;;7.30;100.00;101721.69;5073236;23;20439;-76
2022/10/09 00:42:38;;;;;;;7.82;2.15;;;8.10;99.90;;;7.29;100.00;101717.38;5072986;23;20002;-76
2022/10/09 00:44:59;;;;;;;4.78;1.77;;;8.10;99.90;;;7.31;100.00;101709.41;5098963;23;20006;-76
2022/10/09 00:46:59;;;;;;;7.38;2.70;;;8.00;99.90;;;7.30;100.00;101698.06;5073583;23;20006;-76
2022/10/09 00:49:22;;;;;;;4.57;1.85;;;8.10;99.90;;;7.28;100.00;101702.59;5073140;23;20009;-76
2022/10/09 00:51:24;;;;;;;9.52;2.30;;;8.00;99.90;;;7.28;100.00;101707.84;5076973;23;20348;-76
2022/10/09 00:53:28;;;;;;;5.90;1.90;;;8.00;99.90;;;7.19;100.00;101700.66;5098942;23;20005;-76
2022/10/09 00:55:33;;;;;;;4.82;2.53;;;8.00;99.90;;;7.18;100.00;101705.06;5073293;23;20029;-76
2022/10/09 00:57:36;;;;;;;10.38;2.10;;;8.00;99.90;;;7.13;100.00;101706.34;5073241;23;20014;-76
2022/10/09 00:59:38;;;;;;;6.50;2.20;;;7.90;99.90;;;7.09;100.00;101697.84;5073283;23;20015;-76
2022/10/09 01:01:41;;;;;;;6.63;2.10;;;7.90;99.90;;;7.07;100.00;101697.13;5099024;23;20076;-76
2022/10/09 01:03:41;;;;;;;11.48;2.70;;;7.90;99.90;;;7.01;100.00;101694.09;5048419;23;20006;-76
2022/10/09 01:06:04;;;;;;;4.82;2.03;;;7.80;99.90;;;7.03;100.00;101703.53;5098923;23;20053;-76
2022/10/09 01:08:25;;;;;;;5.20;1.70;;;7.80;99.90;;;6.94;100.00;101698.94;5049020;23;20006;-76
2022/10/09 01:10:30;;;;;;;5.70;1.80;;;7.80;99.90;;;6.93;100.00;101705.13;5099221;23;20006;-76
2022/10/09 01:13:18;;;;;;;7.55;2.15;;;7.70;99.90;;;6.92;100.00;101705.25;5098626;23;20009;-76
2022/10/09 01:15:34;;;;;;;7.30;2.55;;;7.70;99.90;;;6.86;100.00;101689.94;5098868;23;20001;-76
2022/10/09 01:18:01;;;;;;;5.10;1.85;;;7.70;99.90;;;6.91;100.00;101700.94;5074446;23;20006;-76
2022/10/09 01:20:43;;;;;;;8.20;2.00;;;7.70;99.90;;;6.93;100.00;101691.19;5098758;23;20036;-76
2022/10/09 01:23:21;;;;;;;8.23;2.05;;;7.70;99.90;;;6.92;100.00;101694.75;5024910;23;20446;-76
2022/10/09 01:25:32;;;;;;;7.45;2.53;;;7.70;99.90;;;6.89;100.00;101692.34;5098848;23;20006;-76
2022/10/09 01:27:36;;;;;;;7.28;2.42;;;7.70;99.90;;;6.89;100.00;101684.47;5073266;23;20001;-76
2022/10/09 01:29:47;;;;;;;6.20;2.42;;;7.70;99.90;;;6.91;100.00;101672.09;5073294;23;20002;-76
2022/10/09 01:31:50;;;;;;;5.15;2.03;;;7.60;99.90;;;6.88;100.00;101669.69;5073107;23;20439;-76
2022/10/09 01:33:51;;;;;;;6.85;2.17;;;7.70;99.90;;;6.87;100.00;101662.78;5073198;23;20006;-76
2022/10/09 01:35:52;;;;;;;5.28;2.15;;;7.60;99.90;;;6.90;100.00;101671.25;5072974;23;20009;-76
2022/10/09 01:37:55;;;;;;;3.80;1.63;;;7.70;99.90;;;6.93;100.00;101670.22;5098323;23;20025;-76
2022/10/09 01:39:57;;;;;;;5.57;2.25;;;7.70;99.90;;;6.88;100.00;101661.81;5098593;23;20084;-76
2022/10/09 01:41:58;;;;;;;6.13;2.28;;;7.60;99.90;;;6.84;100.00;101652.50;5072432;23;20006;-76
2022/10/09 01:43:59;;;;;;;8.32;1.98;;;7.60;99.90;;;6.86;100.00;101653.22;5072727;23;20010;-76
2022/10/09 01:46:37;;;;;;;4.55;1.88;;;7.60;99.90;;;6.79;100.00;101638.88;5072702;23;20002;-76
2022/10/09 01:48:39;;;;;;;7.03;2.30;;;7.60;99.90;;;6.79;100.00;101646.75;5072403;23;20014;-76
2022/10/09 01:50:45;;;;;;;8.38;2.08;;;7.60;99.90;;;6.76;100.00;101639.09;5072750;23;20054;-76
2022/10/09 01:52:57;;;;;;;6.85;2.15;;;7.60;99.90;;;6.69;100.00;101631.66;5072958;23;20016;-76
2022/10/09 01:55:31;;;;;;;7.15;2.38;;;7.50;99.90;;;6.69;100.00;101636.91;5048944;23;20033;-76
2022/10/09 01:57:44;;;;;;;6.03;3.17;;;7.50;99.90;;;6.65;100.00;101632.84;5098196;23;20012;-76
2022/10/09 01:59:47;;;;;;;5.80;2.10;;;7.50;99.90;;;6.62;100.00;101622.56;5072635;23;20029;-76
2022/10/09 02:01:50;;;;;;;5.97;1.80;;;7.50;99.90;;;6.65;100.00;101634.63;5072743;23;20005;-76
2022/10/09 02:03:52;;;;;;;6.72;1.80;;;7.40;99.90;;;6.59;100.00;101624.56;5072760;23;20446;-76
2022/10/09 02:05:55;;;;;;;8.43;2.67;;;7.40;99.90;;;6.63;100.00;101626.84;5048140;23;20029;-76
2022/10/09 02:07:58;;;;;;;6.25;2.20;;;7.40;99.90;;;6.61;100.00;101618.28;5096431;23;20072;-76
2022/10/09 02:10:01;;;;;;;11.15;2.40;;;7.40;99.90;;;6.59;100.00;101612.31;5072640;23;20054;-76
2022/10/09 02:12:10;;;;;;;7.43;2.80;;;7.40;99.90;;;6.59;100.00;101606.22;5072487;23;20119;-76
2022/10/09 02:14:11;;;;;;;5.63;2.15;;;7.40;99.90;;;6.57;100.00;101605.50;5098738;23;20053;-76
2022/10/09 02:16:30;;;;;;;9.57;1.90;;;7.40;99.90;;;6.56;100.00;101607.28;5047772;23;20014;-76
2022/10/09 02:18:49;;;;;;;8.80;2.20;;;7.40;99.90;;;6.55;100.00;101605.59;5098607;23;20013;-76
2022/10/09 02:20:58;;;;;;;7.22;2.08;;;7.40;99.90;;;6.53;100.00;101604.88;5073138;23;20013;-76
2022/10/09 02:23:04;;;;;;;8.25;2.72;;;7.30;99.90;;;6.52;100.00;101594.50;5073663;23;20010;-76
2022/10/09 02:25:06;;;;;;;12.40;2.63;;;7.30;99.90;;;6.52;100.00;101594.50;5072772;23;20002;-76
2022/10/09 02:27:10;;;;;;;8.20;2.30;;;7.30;99.90;;;6.44;100.00;101576.69;5047837;23;20367;-76
2022/10/09 02:29:14;;;;;;;7.60;2.00;;;7.30;99.90;;;6.44;100.00;101574.09;5098382;23;20006;-76
2022/10/09 02:31:28;;;;;;;9.77;3.03;;;7.30;99.90;;;6.44;100.00;101576.69;5072758;23;20006;-76
2022/10/09 02:33:33;;;;;;;10.13;2.40;;;7.30;99.90;;;6.45;100.00;101580.97;5072649;23;20016;-76
2022/10/09 02:35:36;;;;;;;7.00;2.35;;;7.30;99.90;;;6.44;100.00;101579.31;5072565;23;20006;-76
2022/10/09 02:37:37;;;;;;;4.55;2.10;;;7.20;99.90;;;6.42;100.00;101569.91;5097869;23;20017;-76
2022/10/09 02:39:38;;;;;;;7.30;2.50;;;7.20;99.90;;;6.39;100.00;101570.94;5072601;23;20041;-76
2022/10/09 02:41:38;;;;;;;9.05;2.17;;;7.20;99.90;;;6.40;100.00;101567.38;5047676;23;20011;-76
2022/10/09 02:43:39;;;;;;;7.10;2.13;;;7.20;99.90;;;6.36;100.00;101565.91;5098477;23;20016;-76
2022/10/09 02:45:41;;;;;;;6.78;1.90;;;7.20;99.90;;;6.39;100.00;101572.75;5098292;23;20381;-76
2022/10/09 02:47:42;;;;;;;7.47;2.00;;;7.20;99.90;;;6.33;100.00;101560.06;5072472;23;20009;-76
2022/10/09 02:49:43;;;;;;;5.35;1.90;;;7.20;99.90;;;6.36;100.00;101565.91;5072529;23;20006;-76
2022/10/09 02:51:44;;;;;;;6.78;2.17;;;7.10;99.90;;;6.31;100.00;101561.94;5048064;23;20392;-76
2022/10/09 02:53:45;;;;;;;4.03;1.58;;;7.10;99.90;;;6.25;100.00;101560.59;5072024;23;20014;-76
2022/10/09 02:55:46;;;;;;;3.92;1.70;;;7.10;99.90;;;6.21;100.00;101571.41;5072414;23;20430;-76
2022/10/09 02:57:47;;;;;;;6.90;2.85;;;7.00;99.90;;;6.13;100.00;101564.06;5047749;23;20007;-76
2022/10/09 02:59:48;;;;;;;5.70;2.13;;;7.00;99.90;;;6.12;100.00;101567.66;5098249;23;20343;-76
2022/10/09 03:01:49;;;;;;;7.30;2.78;;;7.00;99.90;;;6.12;100.00;101568.47;5072148;23;20018;-76
2022/10/09 03:03:50;;;;;;;7.85;2.53;;;6.90;99.90;;;6.13;100.00;101564.06;5098269;23;20013;-76
2022/10/09 03:06:04;;;;;;;4.95;2.08;;;6.90;99.90;;;6.14;100.00;101557.91;5072332;23;20320;-76
2022/10/09 03:08:05;;;;;;;5.40;2.73;;;6.90;99.90;;;6.13;100.00;101559.69;5099298;23;20005;-76
2022/10/09 03:10:06;;;;;;;5.07;1.98;;;6.90;99.90;;;6.15;100.00;101549.13;5074040;23;20238;-76
2022/10/09 03:12:07;;;;;;;5.75;1.60;;;6.90;99.90;;;6.15;100.00;101545.66;5099482;23;20006;-76
2022/10/09 03:14:08;;;;;;;7.18;2.55;;;6.90;99.90;;;6.14;100.00;101555.28;5099722;23;20331;-76
2022/10/09 03:16:21;;;;;;;7.60;2.20;;;6.90;99.90;;;6.09;100.00;101552.97;5049291;23;20066;-76
2022/10/09 03:18:21;;;;;;;8.70;2.67;;;6.90;99.90;;;6.06;100.00;101536.66;5074120;23;20012;-76
2022/10/09 03:20:22;;;;;;;5.78;2.28;;;6.90;99.90;;;6.04;100.00;101538.53;5073689;23;20459;-76
2022/10/09 03:22:23;;;;;;;10.85;2.90;;;6.90;99.90;;;6.05;100.00;101548.06;5099664;23;20001;-76
2022/10/09 03:24:24;;;;;;;6.35;2.30;;;6.90;99.90;;;6.02;100.00;101545.66;5099636;23;20012;-76
2022/10/09 03:26:27;;;;;;;7.72;2.35;;;6.80;99.90;;;6.02;100.00;101540.44;5073498;23;20009;-76
2022/10/09 03:28:28;;;;;;;6.50;2.53;;;6.80;99.90;;;6.02;100.00;101548.28;5073752;23;20030;-76
2022/10/09 03:30:29;;;;;;;6.45;2.50;;;6.80;99.90;;;6.00;100.00;101534.47;5099542;23;20020;-76
2022/10/09 03:32:30;;;;;;;9.02;2.38;;;6.80;99.90;;;5.99;100.00;101538.03;5099576;23;20338;-76
2022/10/09 03:34:31;;;;;;;6.95;2.40;;;6.80;99.90;;;5.98;100.00;101523.25;5049384;23;20014;-76
2022/10/09 03:36:32;;;;;;;5.97;2.97;;;6.80;99.90;;;5.95;100.00;101523.47;5073508;23;20006;-76
2022/10/09 03:38:33;;;;;;;7.25;2.13;;;6.80;99.90;;;5.91;100.00;101520.22;5099080;23;20415;-76
2022/10/09 03:40:34;;;;;;;9.73;2.40;;;6.80;99.90;;;5.92;100.00;101528.91;5073754;23;20081;-76
2022/10/09 03:42:35;;;;;;;6.68;2.75;;;6.70;99.90;;;5.91;100.00;101532.50;5099242;23;20343;-76
2022/10/09 03:44:35;;;;;;;9.25;2.20;;;6.70;99.90;;;5.81;100.00;101521.78;5073655;23;20009;-76
2022/10/09 03:46:36;;;;;;;6.60;2.20;;;6.70;99.90;;;5.81;100.00;101520.94;5099487;23;20019;-76
2022/10/09 03:48:37;;;;;;;6.50;2.40;;;6.70;99.90;;;5.81;100.00;101523.56;5049248;23;20009;-76
2022/10/09 03:50:39;;;;;;;11.95;2.45;;;6.60;99.90;;;5.83;100.00;101524.28;5073755;23;20017;-76
2022/10/09 03:52:40;;;;;;;13.48;2.28;;;6.60;99.90;;;5.83;100.00;101529.50;5099412;23;20044;-76
2022/10/09 03:54:41;;;;;;;9.15;2.88;;;6.60;99.90;;;5.83;100.00;101522.50;5073698;23;20010;-76
2022/10/09 03:56:42;;;;;;;9.38;2.53;;;6.60;99.90;;;5.80;100.00;101519.25;5099143;23;20012;-76
2022/10/09 03:58:43;;;;;;;9.60;2.35;;;6.60;99.90;;;5.81;100.00;101516.53;5099336;23;20438;-76
2022/10/09 04:00:44;;;;;;;8.15;2.80;;;6.60;99.90;;;5.75;100.00;101511.72;5073318;23;20010;-76
2022/10/09 04:02:45;;;;;;;7.72;2.08;;;6.60;99.90;;;5.80;100.00;101511.41;5073924;23;20009;-76
2022/10/09 04:04:46;;;;;;;6.40;2.20;;;6.60;99.90;;;5.78;100.00;101515.91;5099352;23;20006;-76
2022/10/09 04:06:47;;;;;;;9.05;2.42;;;6.60;99.90;;;5.79;100.00;101513.22;5099375;23;20008;-76
2022/10/09 04:08:48;;;;;;;6.20;2.75;;;6.60;99.90;;;5.81;100.00;101515.72;5099287;23;20001;-76
2022/10/09 04:10:59;;;;;;;5.15;1.98;;;6.60;99.90;;;5.77;100.00;101514.22;5099368;23;20010;-76
2022/10/09 04:12:59;;;;;;;8.20;2.35;;;6.60;99.90;;;5.80;100.00;101516.63;5073611;23;20017;-76
2022/10/09 04:15:00;;;;;;;4.68;2.42;;;6.60;99.90;;;5.76;100.00;101507.34;5099136;23;20006;-76
2022/10/09 04:17:01;;;;;;;10.48;3.00;;;6.60;99.90;;;5.77;100.00;101516.84;5073404;23;20477;-76
2022/10/09 04:19:02;;;;;;;9.35;2.22;;;6.60;99.90;;;5.74;100.00;101514.44;5099000;23;20009;-76
2022/10/09 04:21:03;;;;;;;5.38;1.85;;;6.60;99.90;;;5.71;100.00;101510.25;5073228;23;20010;-76
2022/10/09 04:23:04;;;;;;;3.42;1.75;;;6.60;99.90;;;5.70;100.00;101515.63;5048496;23;20079;-76
2022/10/09 04:25:05;;;;;;;7.25;2.42;;;6.50;99.90;;;5.68;100.00;101512.25;5099224;23;20008;-76
2022/10/09 04:27:06;;;;;;;9.50;2.63;;;6.50;99.90;;;5.73;100.00;101521.50;5072624;23;20049;-76
2022/10/09 04:29:07;;;;;;;5.10;2.17;;;6.50;99.90;;;5.73;100.00;101518.03;5099067;23;20497;-76
2022/10/09 04:31:08;;;;;;;7.30;2.50;;;6.50;99.90;;;5.64;100.00;101508.19;5099565;23;20009;-76
2022/10/09 04:33:09;;;;;;;6.85;2.20;;;6.50;99.90;;;5.60;100.00;101515.41;5073406;23;20009;-75
2022/10/09 04:35:10;;;;;;;5.18;2.72;;;6.50;99.90;;;5.59;100.00;101519.81;5073308;23;20009;-76
2022/10/09 04:37:10;;;;;;;8.27;2.08;;;6.50;99.90;;;5.57;100.00;101519.06;5098877;23;20017;-76
2022/10/09 04:39:12;;;;;;;7.43;2.65;;;6.40;99.90;;;5.60;100.00;101518.03;5099006;23;20346;-76
2022/10/09 04:41:13;;;;;;;6.82;2.67;;;6.40;99.90;;;5.59;100.00;101505.88;5072834;23;20010;-76
2022/10/09 04:43:14;;;;;;;5.75;2.03;;;6.40;99.90;;;5.64;100.00;101518.66;5099047;23;20006;-76
2022/10/09 04:45:15;;;;;;;7.50;2.58;;;6.40;99.90;;;5.66;100.00;101507.13;5073153;23;20002;-76
2022/10/09 04:47:16;;;;;;;6.05;2.45;;;6.50;99.90;;;5.65;100.00;101504.59;5099051;23;20001;-76
2022/10/09 04:49:17;;;;;;;7.00;2.45;;;6.50;99.90;;;5.63;100.00;101502.09;5073192;23;20006;-76
2022/10/09 04:51:18;;;;;;;6.57;3.47;;;6.50;99.90;;;5.69;100.00;101508.69;5073111;23;20010;-76
2022/10/09 04:53:19;;;;;;;11.13;2.97;;;6.50;99.90;;;5.67;100.00;101500.13;5098852;23;20500;-76
2022/10/09 04:55:20;;;;;;;8.32;3.20;;;6.50;99.90;;;5.64;100.00;101498.56;5098926;23;20089;-76
2022/10/09 04:57:21;;;;;;;7.53;2.53;;;6.40;99.90;;;5.67;100.00;101497.50;5072782;23;20017;-76
2022/10/09 04:59:22;;;;;;;5.25;2.00;;;6.40;99.90;;;5.64;100.00;101489.88;5098877;23;20006;-76
2022/10/09 05:01:26;;;;;;;7.13;2.78;;;6.50;99.90;;;5.62;100.00;101481.25;5098724;23;20010;-76
2022/10/09 05:03:26;;;;;;;4.93;2.22;;;6.50;99.90;;;5.63;100.00;101485.56;5048885;23;20014;-76
2022/10/09 05:05:27;;;;;;;6.07;2.58;;;6.40;99.90;;;5.59;100.00;101474.47;5098808;23;20382;-76
2022/10/09 05:07:28;;;;;;;5.95;2.10;;;6.40;99.90;;;5.57;100.00;101471.97;5098863;23;20002;-76
2022/10/09 05:09:29;;;;;;;8.15;2.17;;;6.40;99.90;;;5.53;100.00;101467.03;5072948;23;20006;-76
2022/10/09 05:11:30;;;;;;;8.80;2.97;;;6.40;99.90;;;5.56;100.00;101470.28;5098721;23;20010;-76
2022/10/09 05:13:39;;;;;;;6.43;2.38;;;6.40;99.90;;;5.54;100.00;101461.72;5072851;23;20013;-76
2022/10/09 05:15:40;;;;;;;4.22;2.25;;;6.40;99.90;;;5.52;100.00;101461.00;5073344;23;20023;-76
2022/10/09 05:17:41;;;;;;;7.70;2.70;;;6.40;99.90;;;5.53;100.00;101467.88;5098738;23;20342;-76
2022/10/09 05:19:42;;;;;;;10.35;3.60;;;6.40;99.90;;;5.52;100.00;101468.84;5072782;23;20014;-76
2022/10/09 05:21:42;;;;;;;6.32;2.45;;;6.40;99.90;;;5.45;100.00;101451.88;5098736;23;20065;-76
2022/10/09 05:23:44;;;;;;;11.43;2.60;;;6.30;99.90;;;5.51;100.00;101461.94;5072697;23;20006;-76
2022/10/09 05:26:04;;;;;;;3.38;2.25;;;6.30;99.90;;;5.49;100.00;101457.75;5097150;23;20056;-76
2022/10/09 05:28:05;;;;;;;8.27;2.63;;;6.30;99.90;;;5.53;100.00;101460.03;5073247;23;20012;-76
2022/10/09 05:30:07;;;;;;;7.60;2.90;;;6.40;99.90;;;5.47;100.00;101443.91;5098278;23;20002;-76
2022/10/09 05:32:08;;;;;;;7.95;2.53;;;6.30;99.90;;;5.53;100.00;101449.56;5072635;23;20049;-76
2022/10/09 05:34:10;;;;;;;6.18;2.15;;;6.40;99.90;;;5.49;100.00;101440.28;5072427;23;20006;-76
2022/10/09 05:36:11;;;;;;;5.15;2.03;;;6.40;99.90;;;5.58;100.00;101447.47;5098580;23;20001;-76
2022/10/09 05:38:12;;;;;;;9.00;2.95;;;6.40;99.90;;;5.57;100.00;101443.19;5098337;23;20080;-76
2022/10/09 05:40:13;;;;;;;6.43;2.20;;;6.40;99.90;;;5.58;100.00;101436.97;5072594;23;20057;-76
2022/10/09 05:42:14;;;;;;;6.13;2.78;;;6.40;99.90;;;5.58;100.00;101434.38;5072312;23;20021;-76
2022/10/09 05:44:15;;;;;;;6.90;2.33;;;6.40;99.90;;;5.60;100.00;101434.28;5097137;23;20005;-76
2022/10/09 05:46:20;;;;;;;7.63;2.17;;;6.40;99.90;;;5.61;100.00;101435.97;5098493;23;20001;-76
2022/10/09 05:48:21;;;;;;;11.50;3.45;;;6.40;99.90;;;5.59;100.00;101425.59;5098454;23;20076;-76
2022/10/09 05:50:22;;;;;;;7.03;3.25;;;6.40;99.90;;;5.60;100.00;101423.81;5072662;23;20013;-76
2022/10/09 05:52:23;;;;;;;9.82;3.00;;;6.50;99.90;;;5.59;100.00;101422.13;5098764;23;20001;-76
2022/10/09 05:54:24;;;;;;;8.27;2.72;;;6.40;99.90;;;5.56;100.00;101414.50;5072609;23;20081;-76
2022/10/09 05:56:36;;;;;;;6.93;2.78;;;6.40;99.90;;;5.58;100.00;101418.66;5047979;23;20014;-76
2022/10/09 05:58:37;;;;;;;9.15;2.53;;;6.40;99.90;;;5.58;100.00;101420.47;5098443;23;20481;-76
2022/10/09 06:00:38;;;;;;;8.40;2.50;;;6.40;99.90;;;5.58;100.00;101418.66;5098339;23;20009;-76
2022/10/09 06:02:39;;;;;;;7.07;2.50;;;6.40;99.90;;;5.51;100.00;101412.22;5097951;23;20009;-76
2022/10/09 06:04:40;;;;;;;10.50;2.47;;;6.40;99.90;;;5.53;100.00;101405.09;5098592;23;20056;-76
2022/10/09 06:06:41;;;;;;;5.07;2.25;;;6.40;99.90;;;5.52;100.00;101416.50;5072745;23;20006;-76
2022/10/09 06:08:42;;;;;;;8.30;2.47;;;6.40;99.90;;;5.50;100.00;101417.53;5072776;23;20009;-76
2022/10/09 06:10:43;;;;;;;7.18;2.35;;;6.30;99.90;;;5.48;100.00;101420.28;5098345;23;20016;-76
2022/10/09 06:12:44;;;;;;;4.18;1.98;;;6.30;99.90;;;5.44;100.00;101417.97;5098055;23;20060;-76
2022/10/09 06:14:45;;;;;;;5.28;2.88;;;6.30;99.90;;;5.42;100.00;101414.63;5047958;23;20093;-76
2022/10/09 06:16:46;;;;;;;6.90;2.42;;;6.30;99.90;;;5.41;100.00;101413.78;5098479;23;20402;-76
2022/10/09 06:18:47;;;;;;;8.65;3.08;;;6.30;99.90;;;5.37;100.00;101412.34;5047733;23;20407;-76
2022/10/09 06:20:57;;;;;;;14.57;2.90;;;6.30;99.90;;;5.38;100.00;101414.00;5098245;23;20009;-75
2022/10/09 06:22:58;;;;;;;8.13;2.65;;;6.20;99.90;;;5.35;100.00;101414.22;5048150;23;20105;-75
2022/10/09 06:24:58;;;;;;;7.05;2.40;;;6.20;99.90;;;5.36;100.00;101408.03;5098323;23;20002;-75
2022/10/09 06:26:59;;;;;;;4.78;2.75;;;6.20;99.90;;;5.35;100.00;101411.59;5047612;23;20014;-75
2022/10/09 06:29:01;;;;;;;4.50;2.55;;;6.20;99.90;;;5.35;100.00;101402.91;5098415;23;20006;-75
2022/10/09 06:31:08;;;;;;;9.25;3.22;;;6.20;99.90;;;5.31;100.00;101394.47;5072574;23;20010;-75
2022/10/09 06:33:08;;;;;;;8.07;2.90;;;6.20;99.90;;;5.33;100.00;101403.03;5072418;23;20420;-76
2022/10/09 06:35:09;;;;;;;5.70;2.28;;;6.20;99.90;;;5.34;100.00;101404.72;5098278;23;20013;-76
2022/10/09 06:37:10;;;;;;;10.45;3.05;;;6.20;99.90;;;5.35;100.00;101402.91;5098019;23;20025;-77
2022/10/09 06:39:11;;;;;;;6.60;2.05;;;6.20;99.90;;;5.24;100.00;101393.19;5098623;23;20006;-77
2022/10/09 06:41:22;;;;;;;7.85;2.50;;;6.20;99.90;;;5.24;100.00;101394.97;5097994;23;20010;-77
2022/10/09 06:43:23;;;;;;;6.28;2.10;;;6.20;99.90;;;5.20;100.00;101391.72;5074673;23;20026;-76
2022/10/09 06:45:23;;;;;;;6.55;2.25;;;6.10;99.90;;;5.16;100.00;101387.66;5099781;23;20005;-76
2022/10/09 06:47:24;;;;;;;4.88;1.92;;;6.10;99.90;;;5.22;100.00;101395.09;5074255;23;20002;-76
2022/10/09 06:49:25;;;;;;;7.30;2.47;;;6.10;99.90;;;5.22;100.00;101389.03;5099872;23;20002;-76
2022/10/09 06:51:28;;;;;;;7.13;2.17;;;6.10;99.90;;;5.25;100.00;101387.03;5074108;23;20006;-76
2022/10/09 06:53:29;;;;;;;9.80;2.47;;;6.10;99.90;;;5.27;100.00;101387.75;5098100;23;20006;-76
2022/10/09 06:55:31;;;;;;;7.90;2.75;;;6.10;99.90;;;5.22;100.00;101375.94;5074015;23;20010;-76
2022/10/09 06:57:32;;;;;;;4.78;1.98;;;6.10;99.90;;;5.31;100.00;101391.00;5073691;23;20038;-76
2022/10/09 06:59:33;;;;;;;5.55;2.20;;;6.20;99.90;;;5.32;100.00;101387.41;5099889;23;20109;-76
2022/10/09 07:01:34;;;;;;;8.93;2.45;;;6.20;99.90;;;5.34;100.00;101381.16;5073767;23;20006;-78
2022/10/09 07:03:36;;;;;;;5.72;2.80;;;6.20;99.90;;;5.38;100.00;101393.06;5073799;23;20034;-78
2022/10/09 07:05:38;;;;;;;5.57;2.15;;;6.30;99.90;;;5.45;100.00;101390.88;5049458;23;20009;-79
2022/10/09 07:07:40;;;;;;;4.93;2.35;;;6.30;99.90;;;5.47;100.00;101384.56;5099810;23;20024;-78
2022/10/09 07:09:41;;;;;;;3.72;2.17;;;6.30;99.90;;;5.53;100.00;101385.91;5073996;23;20428;-78
2022/10/09 07:11:45;;;;;;;6.57;3.17;;;6.40;99.90;;;5.55;100.00;101387.47;5099425;23;20064;-78
2022/10/09 07:13:47;;;;;;;;;;;6.40;99.90;;;5.55;100.00;101387.47;5074312;23;20016;-79
2022/10/09 07:15:47;;;;;;;6.75;2.38;;;6.50;99.90;;;5.59;100.00;101383.72;5074284;23;20388;-78
2022/10/09 07:17:48;;;;;;;8.48;2.13;;;6.50;99.90;;;5.62;100.00;101372.19;5099816;23;20056;-78
2022/10/09 07:19:49;;;;;;;6.05;2.35;;;6.50;99.90;;;5.69;100.00;101368.19;5074048;23;20010;-79
2022/10/09 07:21:51;;;;;;;9.45;3.75;;;6.60;99.90;;;5.76;100.00;101373.84;5099552;23;20005;-78
2022/10/09 07:23:53;;;;;;;7.25;2.65;;;6.60;99.90;;;5.82;100.00;101371.63;5073957;23;20006;-78
2022/10/09 07:25:53;;;;;;;10.52;3.90;;;6.70;99.90;;;5.87;100.00;101368.69;5073299;23;20109;-78
2022/10/09 07:27:54;;;;;;;5.05;2.35;;;6.70;99.90;;;5.95;100.00;101376.81;5073873;23;20395;-78
2022/10/09 07:29:55;;;;;;;10.75;3.53;;;6.80;99.90;;;5.98;100.00;101363.50;5099606;23;20010;-79
2022/10/09 07:31:56;;;;;;;8.75;2.75;;;6.80;99.90;;;6.03;100.00;101364.03;5073750;23;20005;-78
2022/10/09 07:33:58;;;;;;;6.18;2.70;;;6.90;99.90;;;6.09;100.00;101369.63;5073706;23;20009;-78
2022/10/09 07:36:01;;;;;;;9.43;3.08;;;6.90;99.90;;;6.15;100.00;101365.75;5098361;23;20100;-79
2022/10/09 07:38:03;;;;;;;5.68;2.20;;;7.00;99.90;;;6.21;100.00;101369.69;5099272;23;20018;-78
2022/10/09 07:40:04;;;;;;;5.45;2.78;;;7.10;99.90;;;6.23;100.00;101370.41;5099497;23;20006;-78
2022/10/09 07:42:05;;;;;;;6.15;2.90;;;7.10;99.90;;;6.30;100.00;101369.03;5099130;23;20010;-78
2022/10/09 07:44:06;;;;;;;8.60;2.65;;;7.10;99.90;;;6.32;100.00;101362.72;5099517;23;20394;-78
2022/10/09 07:46:13;;;;;;;6.97;2.53;;;7.20;99.90;;;6.41;100.00;101369.06;5072412;23;20371;-79
2022/10/09 07:48:14;;;;;;;6.13;2.92;;;7.20;99.90;;;6.44;100.00;101367.06;5074020;23;20006;-79
2022/10/09 07:50:15;;;;;;;6.15;3.45;;;7.30;99.90;;;6.51;100.00;101364.81;5073530;23;20347;-78
2022/10/09 07:52:16;;;;;;;7.72;2.80;;;7.40;99.90;;;6.53;100.00;101363.75;5099375;23;20028;-79
2022/10/09 07:54:17;;;;;;;6.47;2.72;;;7.40;99.90;;;6.58;100.00;101358.97;5072869;23;20005;-78
2022/10/09 07:56:21;;;;;;;11.20;4.28;;;7.50;99.90;;;6.65;100.00;101356.75;5099384;23;20005;-78
2022/10/09 07:58:22;;;;;;;7.57;2.65;;;7.60;99.90;;;6.77;100.00;101368.09;5073665;23;20002;-79
2022/10/09 08:00:23;;;;;;;7.10;2.63;;;7.60;99.90;;;6.82;100.00;101371.19;5073338;23;20006;-78
2022/10/09 08:02:24;;;;;;;5.28;2.92;;;7.60;99.90;;;6.88;100.00;101353.19;5073448;23;20467;-78
2022/10/09 08:04:25;;;;;;;9.82;3.30;;;7.70;99.90;;;6.95;100.00;101356.19;5099304;23;20005;-79
2022/10/09 08:06:26;;;;;;;8.50;2.20;;;7.80;99.90;;;7.03;100.00;101357.28;5073484;23;20009;-78
2022/10/09 08:08:27;;;;;;;6.95;3.85;;;7.90;99.90;;;7.12;100.00;101355.72;5099256;23;20009;-79
2022/10/09 08:10:30;;;;;;;10.15;3.05;;;7.90;99.90;;;7.19;100.00;101349.06;5099271;23;20001;-78
2022/10/09 08:12:31;;;;;;;4.43;2.38;;;8.00;99.90;;;7.26;100.00;101350.22;5073209;23;20522;-79
2022/10/09 08:14:32;;;;;;;7.70;2.85;;;8.10;99.90;;;7.31;100.00;101340.22;5099496;23;20011;-78
2022/10/09 08:16:33;;;;;;;9.82;3.33;;;8.20;99.90;;;7.43;100.00;101349.75;5099284;23;20002;-79
2022/10/09 08:18:35;;;;;;;10.80;3.40;;;8.30;99.90;;;7.48;100.00;101337.09;5073464;23;20370;-78
2022/10/09 08:20:36;;;;;;;7.05;2.10;;;8.30;99.90;;;7.56;100.00;101345.19;5048875;23;20017;-78
2022/10/09 08:22:37;;;;;;;7.20;2.42;;;8.40;99.90;;;7.64;100.00;101348.06;5073409;23;20002;-78
2022/10/09 08:24:38;;;;;;;8.57;3.38;;;8.50;99.90;;;7.70;100.00;101344.94;5099152;23;20008;-78
2022/10/09 08:26:39;;;;;;;8.55;3.13;;;8.60;99.90;;;7.78;100.00;101344.31;5099306;23;20006;-79
2022/10/09 08:28:41;;;;;;;7.13;2.67;;;8.60;99.90;;;7.82;100.00;101330.00;5099174;23;20006;-78
2022/10/09 08:30:42;;;;;;;8.90;2.85;;;8.70;99.90;;;7.96;100.00;101342.00;5099137;23;20041;-78
2022/10/09 08:32:42;;;;;;;8.30;3.15;;;8.80;99.90;;;8.02;100.00;101341.50;5048899;23;20514;-78
2022/10/09 08:34:43;;;;;;;9.00;2.80;;;8.90;99.90;;;8.14;100.00;101336.09;5073356;23;20465;-78
2022/10/09 08:36:44;;;;;;;13.63;3.78;;;9.00;99.90;;;8.21;100.00;101337.22;5072899;23;20006;-78